Storm Events Database

Event Details

Event Flash Flood
-- Flood Cause Heavy Rain
State TEXAS
County/Area COLEMAN
WFO SJT
Report Source Department of Highways
NCDC Data Source CSV
Begin Date 2007-03-30 10:47:00.0 CST-6
Begin Location 0N ECHO
Begin Lat/Lon 31.93/-99.33
End Date 2007-03-30 12:47:00.0 CST-6
Deaths Direct/Indirect 0/0 (fatality details below, when available...)
Injuries Direct/Indirect 0/0
Property Damage 0.00K
Crop Damage 0.00K
Episode Narrative A deep trough along the Rocky Mountains and a stationary front across West Central Texas combined to produce widespread showers and thunderstorms across the region. With the amount of shear in the environment, several of the storms became supercells and produced mainly hail and an isolated tornado near Sweetwater. For the most part, they remained elevated above the boundary layer. This was the first widespread outbreak of severe thunderstorms for the early spring storm season.
Event Narrative Highway 206 in northeast Coleman County was flooded. Additional county roads were flooded including 1147 and 1026.


     ‚Äč



All events for this episode:

Location County/Zone St. Date Time T.Z. Type Mag Dth Inj PrD CrD
Totals: 0 1 55.00K 0.00K
OZONA CROCKETT CO. TX 03/30/2007 04:17 CST-6 Hail 0.75 in. 0 0 0.00K 0.00K
CHRISTOVAL TOM GREEN CO. TX 03/30/2007 05:51 CST-6 Hail 1.00 in. 0 0 0.00K 0.00K
CHRISTOVAL TOM GREEN CO. TX 03/30/2007 06:05 CST-6 Hail 0.75 in. 0 0 0.00K 0.00K
OZONA MUNI ARPT CROCKETT CO. TX 03/30/2007 06:12 CST-6 Hail 1.75 in. 0 0 2.00K 0.00K
VANCOURT TOM GREEN CO. TX 03/30/2007 06:43 CST-6 Hail 1.00 in. 0 0 0.00K 0.00K
LOWAKE INN ARPT CONCHO CO. TX 03/30/2007 07:07 CST-6 Hail 1.00 in. 0 0 0.00K 0.00K
WALL TOM GREEN CO. TX 03/30/2007 07:28 CST-6 Lightning 0 0 8.00K 0.00K
EL DORADO MUNI ARPT SCHLEICHER CO. TX 03/30/2007 08:02 CST-6 Hail 1.00 in. 0 0 0.00K 0.00K
OZONA CROCKETT CO. TX 03/30/2007 08:19 CST-6 Flash Flood 0 0 0.00K 0.00K
EL DORADO MUNI ARPT SCHLEICHER CO. TX 03/30/2007 08:34 CST-6 Flash Flood 0 0 0.00K 0.00K
CROSS PLAINS CALLAHAN CO. TX 03/30/2007 09:36 CST-6 Hail 0.75 in. 0 0 0.00K 0.00K
CROSS PLAINS CALLAHAN CO. TX 03/30/2007 09:42 CST-6 Hail 2.50 in. 0 0 10.00K 0.00K
CROSS PLAINS CALLAHAN CO. TX 03/30/2007 09:42 CST-6 Thunderstorm Wind 59 kts. EG 0 0 2.00K 0.00K
CROSS PLAINS CALLAHAN CO. TX 03/30/2007 09:43 CST-6 Hail 1.00 in. 0 0 0.00K 0.00K
CROSS CUT BROWN CO. TX 03/30/2007 10:00 CST-6 Hail 1.75 in. 0 0 2.00K 0.00K
VALERA COLEMAN CO. TX 03/30/2007 10:13 CST-6 Flash Flood 0 0 0.00K 0.00K
CONCHO CONCHO CO. TX 03/30/2007 10:35 CST-6 Hail 0.88 in. 0 0 0.00K 0.00K
ECHO COLEMAN CO. TX 03/30/2007 10:47 CST-6 Flash Flood 0 0 0.00K 0.00K
SWEETWATER NOLAN CO. TX 03/30/2007 11:02 CST-6 Tornado EF0 0 1 10.00K 0.00K
ESKOTA FISHER CO. TX 03/30/2007 11:04 CST-6 Tornado EF0 0 0 4.00K 0.00K
EDITH COKE CO. TX 03/30/2007 11:25 CST-6 Hail 0.75 in. 0 0 0.00K 0.00K
ANSON JONES CO. TX 03/30/2007 11:55 CST-6 Hail 1.00 in. 0 0 0.00K 0.00K
ANSON JONES CO. TX 03/30/2007 11:55 CST-6 Thunderstorm Wind 52 kts. EG 0 0 3.00K 0.00K
WALL TOM GREEN CO. TX 03/30/2007 13:30 CST-6 Hail 0.88 in. 0 0 0.00K 0.00K
WINTERS MUNI ARPT RUNNELS CO. TX 03/30/2007 13:36 CST-6 Hail 0.88 in. 0 0 0.00K 0.00K
OZONA MUNI ARPT CROCKETT CO. TX 03/30/2007 13:52 CST-6 Hail 1.75 in. 0 0 0.00K 0.00K
ABILENE TAYLOR CO. TX 03/30/2007 14:00 CST-6 Flood 0 0 9.00K 0.00K
NOVICE COLEMAN CO. TX 03/30/2007 14:30 CST-6 Hail 1.75 in. 0 0 5.00K 0.00K
PAINT ROCK CONCHO CO. TX 03/30/2007 15:14 CST-6 Hail 1.00 in. 0 0 0.00K 0.00K
EOLA CONCHO CO. TX 03/30/2007 16:02 CST-6 Hail 0.75 in. 0 0 0.00K 0.00K
BANGS BROWN CO. TX 03/30/2007 16:32 CST-6 Hail 1.00 in. 0 0 0.00K 0.00K
BROWNWOOD BROWN CO. TX 03/30/2007 17:10 CST-6 Hail 1.00 in. 0 0 0.00K 0.00K
LAKE BROWNWOOD BROWN CO. TX 03/30/2007 17:10 CST-6 Funnel Cloud 0 0 0.00K 0.00K
Totals: 0 1 55.00K 0.00K